Time;durP1;ratioP1;P1;durP2;ratioP2;P2;SDS_P1;SDS_P2;PMS_P1;PMS_P2;Temp;Humidity;BMP_temperature;BMP_pressure;BME280_temperature;BME280_humidity;BME280_pressure;Samples;Min_cycle;Max_cycle;Signal;HPM_P1;HPM_P2
2021/10/25 00:00:05;;;;;;;17.67;11.52;;;3.50;99.90;;;;;;5093444;28;20076;-68
2021/10/25 00:02:30;;;;;;;16.45;11.48;;;3.50;99.90;;;;;;5092504;28;20050;-68
2021/10/25 00:04:56;;;;;;;19.10;11.73;;;3.50;99.90;;;;;;5092489;28;20024;-68
2021/10/25 00:07:22;;;;;;;18.05;11.25;;;3.50;99.90;;;;;;5093879;28;20024;-69
2021/10/25 00:09:47;;;;;;;19.38;11.20;;;3.40;99.90;;;;;;5093921;28;20485;-69
2021/10/25 00:12:13;;;;;;;19.48;11.93;;;3.40;99.90;;;;;;5093834;28;20031;-68
2021/10/25 00:14:38;;;;;;;24.00;12.52;;;3.40;99.90;;;;;;5075700;28;20416;-68
2021/10/25 00:17:04;;;;;;;17.73;11.77;;;3.40;99.90;;;;;;5092311;28;20060;-68
2021/10/25 00:19:31;;;;;;;20.63;12.23;;;3.40;99.90;;;;;;5076019;28;20017;-68
2021/10/25 00:21:56;;;;;;;20.20;12.35;;;3.30;99.90;;;;;;5092655;28;20020;-68
2021/10/25 00:24:22;;;;;;;17.08;12.00;;;3.30;99.90;;;;;;5093718;28;20381;-68
2021/10/25 00:26:48;;;;;;;18.08;11.32;;;3.30;99.90;;;;;;5093474;28;20032;-68
2021/10/25 00:29:13;;;;;;;22.33;13.30;;;3.30;99.90;;;;;;5092503;28;20024;-68
2021/10/25 00:31:39;;;;;;;21.75;13.80;;;3.30;99.90;;;;;;5093375;28;20046;-68
2021/10/25 00:34:04;;;;;;;21.05;12.90;;;3.30;99.90;;;;;;5093654;28;20028;-69
2021/10/25 00:36:30;;;;;;;17.98;12.07;;;3.20;99.90;;;;;;5091503;28;20089;-68
2021/10/25 00:38:56;;;;;;;18.95;12.85;;;3.20;99.90;;;;;;5093618;28;20017;-68
2021/10/25 00:41:22;;;;;;;21.23;12.90;;;3.10;99.90;;;;;;5092129;28;20100;-68
2021/10/25 00:43:47;;;;;;;18.73;12.15;;;3.10;99.90;;;;;;5094419;28;20113;-68
2021/10/25 00:46:13;;;;;;;22.38;13.02;;;3.00;99.90;;;;;;5095816;28;20032;-68
2021/10/25 00:48:39;;;;;;;18.92;11.30;;;2.90;99.90;;;;;;5097179;28;20024;-68
2021/10/25 00:51:06;;;;;;;19.40;12.02;;;2.90;99.90;;;;;;5095387;28;20025;-68
2021/10/25 00:53:33;;;;;;;20.17;12.63;;;2.80;99.90;;;;;;5095954;28;20031;-68
2021/10/25 00:56:00;;;;;;;22.65;12.25;;;2.80;99.90;;;;;;5096984;28;20055;-68
2021/10/25 00:58:25;;;;;;;18.33;11.07;;;2.80;99.90;;;;;;5095561;28;20027;-68
2021/10/25 01:00:51;;;;;;;21.08;11.82;;;2.70;99.90;;;;;;5095526;28;20024;-68
2021/10/25 01:03:17;;;;;;;18.10;11.93;;;2.70;99.90;;;;;;5096914;28;20477;-68
2021/10/25 01:05:43;;;;;;;19.55;12.38;;;2.60;99.90;;;;;;5096869;28;20035;-68
2021/10/25 01:08:08;;;;;;;17.17;11.18;;;2.60;99.90;;;;;;5078167;28;20127;-68
2021/10/25 01:10:34;;;;;;;17.10;11.18;;;2.60;99.90;;;;;;5095373;28;20032;-68
2021/10/25 01:13:00;;;;;;;17.13;11.27;;;2.60;99.90;;;;;;5095573;28;20369;-68
2021/10/25 01:15:27;;;;;;;19.77;11.23;;;2.50;99.90;;;;;;5095250;28;20480;-68
2021/10/25 01:17:54;;;;;;;22.08;11.88;;;2.60;99.90;;;;;;5096655;28;20134;-69
2021/10/25 01:20:21;;;;;;;20.05;12.73;;;2.60;99.90;;;;;;5095339;28;20385;-67
2021/10/25 01:22:47;;;;;;;19.52;11.63;;;2.60;99.90;;;;;;5096301;28;20020;-68
2021/10/25 01:25:12;;;;;;;20.58;11.93;;;2.60;99.90;;;;;;5078596;28;20027;-68
2021/10/25 01:27:38;;;;;;;19.15;12.65;;;2.50;99.90;;;;;;5094627;28;20424;-68
2021/10/25 01:30:04;;;;;;;20.30;12.50;;;2.50;99.90;;;;;;5077798;28;20416;-68
2021/10/25 01:32:30;;;;;;;21.85;12.02;;;2.50;99.90;;;;;;5096392;28;20024;-68
2021/10/25 01:34:56;;;;;;;20.15;12.60;;;2.40;99.90;;;;;;5096343;28;20055;-68
2021/10/25 01:37:21;;;;;;;17.05;11.45;;;2.40;99.90;;;;;;5095524;28;20513;-68
2021/10/25 01:39:47;;;;;;;17.38;11.40;;;2.40;99.90;;;;;;5095926;28;20051;-68
2021/10/25 01:42:12;;;;;;;18.60;12.80;;;2.40;99.90;;;;;;5096165;28;20024;-68
2021/10/25 01:44:39;;;;;;;19.88;12.57;;;2.40;99.90;;;;;;5096114;28;20035;-67
2021/10/25 01:47:04;;;;;;;19.15;11.73;;;2.40;99.90;;;;;;5094650;28;20020;-68
2021/10/25 01:49:30;;;;;;;19.23;12.48;;;2.40;99.90;;;;;;5095729;28;20096;-68
2021/10/25 01:51:55;;;;;;;19.15;12.43;;;2.40;99.90;;;;;;5094125;28;20028;-67
2021/10/25 01:54:21;;;;;;;19.30;11.88;;;2.40;99.90;;;;;;5095897;28;20035;-68
2021/10/25 01:56:47;;;;;;;23.85;13.43;;;2.40;99.90;;;;;;5077226;28;20027;-68
2021/10/25 01:59:13;;;;;;;21.70;13.43;;;2.40;99.90;;;;;;5094045;28;20114;-68
2021/10/25 02:01:39;;;;;;;21.17;13.18;;;2.40;99.90;;;;;;5094612;28;20095;-67
2021/10/25 02:04:05;;;;;;;18.73;12.45;;;2.40;99.90;;;;;;5095761;28;20012;-67
2021/10/25 02:06:32;;;;;;;22.40;13.25;;;2.40;99.90;;;;;;5095705;28;20029;-67
2021/10/25 02:08:58;;;;;;;23.60;13.98;;;2.30;99.90;;;;;;5095370;28;20032;-68
2021/10/25 02:11:23;;;;;;;22.95;14.98;;;2.30;99.90;;;;;;5095322;28;20023;-67
2021/10/25 02:13:49;;;;;;;21.85;13.45;;;2.40;99.90;;;;;;5094118;28;20054;-67
2021/10/25 02:16:16;;;;;;;23.38;13.43;;;2.40;99.90;;;;;;5095446;28;20020;-67
2021/10/25 02:18:42;;;;;;;21.13;13.07;;;2.40;99.90;;;;;;5095475;28;20020;-68
2021/10/25 02:21:07;;;;;;;21.45;14.00;;;2.40;99.90;;;;;;5095433;28;20023;-68
2021/10/25 02:23:33;;;;;;;21.48;13.10;;;2.50;99.90;;;;;;5095374;28;20099;-67
2021/10/25 02:25:59;;;;;;;24.25;13.95;;;2.40;99.90;;;;;;5095331;28;20438;-68
2021/10/25 02:28:25;;;;;;;19.50;13.30;;;2.40;99.90;;;;;;5094697;28;20027;-68
2021/10/25 02:30:52;;;;;;;22.42;13.73;;;2.40;99.90;;;;;;5093751;28;20028;-68
2021/10/25 02:33:18;;;;;;;21.70;12.98;;;2.40;99.90;;;;;;5095194;28;20028;-68
2021/10/25 02:35:44;;;;;;;22.02;14.00;;;2.40;99.90;;;;;;5094675;28;20044;-69
2021/10/25 02:38:09;;;;;;;23.27;13.38;;;2.40;99.90;;;;;;5095022;28;20024;-67
2021/10/25 02:40:35;;;;;;;22.10;13.95;;;2.30;99.90;;;;;;5095058;28;20051;-68
2021/10/25 02:43:01;;;;;;;24.10;13.00;;;2.30;99.90;;;;;;5093837;28;20031;-67
2021/10/25 02:45:27;;;;;;;23.08;12.95;;;2.30;99.90;;;;;;5094951;28;20053;-67
2021/10/25 02:47:53;;;;;;;23.85;14.15;;;2.30;99.90;;;;;;5093368;28;20358;-67
2021/10/25 02:50:18;;;;;;;23.00;13.23;;;2.30;99.90;;;;;;5093051;28;20039;-67
2021/10/25 02:52:44;;;;;;;25.17;13.35;;;2.30;99.90;;;;;;5094239;28;20031;-67
2021/10/25 02:55:10;;;;;;;24.25;14.30;;;2.20;99.90;;;;;;5075990;28;20036;-67
2021/10/25 02:57:37;;;;;;;24.55;13.68;;;2.20;99.90;;;;;;5093768;28;20066;-67
2021/10/25 03:00:06;;;;;;;22.02;13.35;;;2.20;99.90;;;;;;5093638;28;20436;-67
2021/10/25 03:02:32;;;;;;;23.67;13.80;;;2.20;99.90;;;;;;5095480;28;20024;-67
2021/10/25 03:04:58;;;;;;;22.63;14.07;;;2.20;99.90;;;;;;5093354;28;20204;-76
2021/10/25 03:07:23;;;;;;;23.45;13.70;;;2.20;99.90;;;;;;5093676;28;20051;-75
2021/10/25 03:09:49;;;;;;;23.13;13.70;;;2.10;99.90;;;;;;5094322;28;20052;-75
2021/10/25 03:12:15;;;;;;;21.60;13.13;;;2.10;99.90;;;;;;5092714;28;20024;-67
2021/10/25 03:14:41;;;;;;;22.00;13.95;;;2.10;99.90;;;;;;5092708;28;20024;-68
2021/10/25 03:17:07;;;;;;;22.38;13.25;;;2.10;99.90;;;;;;5094445;28;20085;-68
2021/10/25 03:19:32;;;;;;;23.70;13.50;;;2.10;99.90;;;;;;5094390;28;20366;-68
2021/10/25 03:21:58;;;;;;;23.00;13.60;;;2.00;99.90;;;;;;5094453;28;20024;-68
2021/10/25 03:24:23;;;;;;;22.25;13.95;;;2.00;99.90;;;;;;5094362;28;20032;-68
2021/10/25 03:26:49;;;;;;;23.92;13.65;;;2.00;99.90;;;;;;5094027;28;20089;-67
2021/10/25 03:29:16;;;;;;;32.40;15.65;;;2.00;99.90;;;;;;5094257;28;20031;-68
2021/10/25 03:31:41;;;;;;;24.55;14.48;;;1.90;99.90;;;;;;5093759;28;20500;-68
2021/10/25 03:34:07;;;;;;;21.00;13.27;;;1.90;99.90;;;;;;5094218;28;20028;-68
2021/10/25 03:36:34;;;;;;;20.55;13.57;;;1.90;99.90;;;;;;5093600;28;20052;-68
2021/10/25 03:38:59;;;;;;;25.63;13.30;;;2.00;99.90;;;;;;5092371;28;20016;-67
2021/10/25 03:41:31;;;;;;;24.83;14.68;;;2.00;99.90;;;;;;5092342;28;20446;-67
2021/10/25 03:44:02;;;;;;;27.17;14.48;;;2.00;99.90;;;;;;5092738;28;20103;-68
2021/10/25 03:46:41;;;;;;;26.20;15.57;;;2.00;99.90;;;;;;5094120;28;20027;-67
2021/10/25 03:49:14;;;;;;;24.38;15.15;;;2.00;99.90;;;;;;5092441;28;20393;-67
2021/10/25 03:51:41;;;;;;;31.25;15.80;;;2.10;99.90;;;;;;5092693;28;20073;-67
2021/10/25 03:54:23;;;;;;;27.30;14.98;;;2.20;99.90;;;;;;5094059;28;20032;-67
2021/10/25 04:00:06;;;;;;;24.73;14.50;;;2.10;99.90;;;;;;5091912;28;20456;-67
2021/10/25 04:02:56;;;;;;;28.00;14.45;;;2.10;99.90;;;;;;5090897;28;20036;-67
2021/10/25 04:27:45;;;;;;;28.40;16.13;;;2.20;99.90;;;;;;5090418;28;20035;-67
2021/10/25 04:29:49;;;;;;;29.33;16.98;;;2.30;99.90;;;;;;5089340;28;20021;-67
2021/10/25 04:32:14;;;;;;;29.23;16.42;;;2.30;99.90;;;;;;5091012;28;20355;-67
2021/10/25 04:34:40;;;;;;;29.88;16.20;;;2.30;99.90;;;;;;5072342;28;20066;-67
2021/10/25 04:37:05;;;;;;;30.02;16.67;;;2.30;99.90;;;;;;5090656;28;20021;-67
2021/10/25 04:39:31;;;;;;;30.13;18.00;;;2.50;99.90;;;;;;5089021;28;20031;-67
2021/10/25 04:41:56;;;;;;;32.08;18.27;;;2.50;99.90;;;;;;5090847;28;20466;-68
2021/10/25 04:44:22;;;;;;;31.40;17.35;;;2.70;99.90;;;;;;5090794;28;20466;-67
2021/10/25 04:46:47;;;;;;;29.17;15.95;;;2.70;99.90;;;;;;5089730;28;20024;-68
2021/10/25 04:49:13;;;;;;;26.95;16.73;;;2.60;99.90;;;;;;5090431;28;20033;-67
2021/10/25 04:51:38;;;;;;;26.05;16.42;;;2.70;99.90;;;;;;5089182;28;20078;-67
2021/10/25 04:54:04;;;;;;;32.10;17.98;;;2.80;99.90;;;;;;5089464;28;20028;-67
2021/10/25 04:56:31;;;;;;;30.92;18.58;;;2.80;99.90;;;;;;5089115;28;20040;-67
2021/10/25 04:58:56;;;;;;;31.42;17.80;;;2.80;99.90;;;;;;5089793;28;20485;-67
2021/10/25 05:01:22;;;;;;;31.20;18.40;;;2.80;99.90;;;;;;5088682;28;20020;-68
2021/10/25 05:03:47;;;;;;;30.75;16.65;;;2.90;99.90;;;;;;5090438;28;20082;-67
2021/10/25 05:06:18;;;;;;;28.50;16.15;;;2.90;99.90;;;;;;5089243;28;20021;-68
2021/10/25 05:08:52;;;;;;;31.70;16.60;;;2.90;99.90;;;;;;5090291;28;20055;-67
2021/10/25 05:11:17;;;;;;;32.10;15.88;;;2.80;99.90;;;;;;5074516;28;20024;-68
2021/10/25 05:13:43;;;;;;;29.52;15.63;;;2.70;99.90;;;;;;5075311;28;20028;-68
2021/10/25 05:16:08;;;;;;;30.75;17.48;;;2.70;99.90;;;;;;5074849;28;20078;-68
2021/10/25 05:18:34;;;;;;;31.73;17.95;;;2.80;99.90;;;;;;5076589;28;20031;-68
2021/10/25 05:21:00;;;;;;;27.13;16.80;;;2.90;99.90;;;;;;5076335;28;20047;-68
2021/10/25 05:23:26;;;;;;;30.90;17.75;;;2.90;99.90;;;;;;5076330;28;20042;-68
2021/10/25 05:25:51;;;;;;;27.33;17.00;;;3.00;99.90;;;;;;5076277;28;20025;-68
2021/10/25 05:28:17;;;;;;;31.77;18.38;;;3.00;99.90;;;;;;5076215;28;20104;-68
2021/10/25 05:30:44;;;;;;;33.00;18.70;;;3.10;99.90;;;;;;5075313;28;20458;-68
2021/10/25 05:33:10;;;;;;;33.83;17.67;;;3.10;99.90;;;;;;5076117;28;20441;-67
2021/10/25 05:35:38;;;;;;;31.50;17.45;;;3.10;99.90;;;;;;5075815;28;20367;-68
2021/10/25 05:38:04;;;;;;;33.65;17.80;;;3.10;99.90;;;;;;5076229;28;20020;-68
2021/10/25 05:40:29;;;;;;;32.03;17.65;;;3.10;99.90;;;;;;5074816;28;20074;-68
2021/10/25 05:42:56;;;;;;;31.90;16.70;;;3.10;99.90;;;;;;5074803;28;20032;-68
2021/10/25 05:45:22;;;;;;;32.70;18.35;;;3.00;99.90;;;;;;5074382;28;20017;-67
2021/10/25 05:47:48;;;;;;;33.03;17.58;;;3.10;99.90;;;;;;5074313;28;20031;-67
2021/10/25 05:50:14;;;;;;;25.00;16.17;;;3.10;99.90;;;;;;5075787;28;20362;-67
2021/10/25 05:52:39;;;;;;;29.98;16.77;;;3.10;99.90;;;;;;5076022;28;20024;-67
2021/10/25 05:55:06;;;;;;;29.92;17.40;;;3.10;99.90;;;;;;5075919;28;20419;-68
2021/10/25 05:57:31;;;;;;;31.05;17.13;;;3.00;99.90;;;;;;5073725;28;20024;-68
2021/10/25 05:59:58;;;;;;;27.88;15.65;;;3.00;99.90;;;;;;5075173;28;20024;-67
2021/10/25 06:02:27;;;;;;;22.00;14.13;;;2.90;99.90;;;;;;5074005;28;20020;-68
2021/10/25 06:04:52;;;;;;;27.92;15.77;;;2.90;99.90;;;;;;5075808;28;20031;-67
2021/10/25 06:07:18;;;;;;;25.83;14.40;;;2.80;99.90;;;;;;5066787;28;20444;-67
2021/10/25 06:09:45;;;;;;;22.33;13.77;;;2.90;99.90;;;;;;5055098;28;20521;-67
2021/10/25 06:12:17;;;;;;;22.75;13.43;;;2.80;99.90;;;;;;5056700;28;20399;-68
2021/10/25 06:14:44;;;;;;;26.45;14.60;;;2.80;99.90;;;;;;5053739;28;20082;-67
2021/10/25 06:17:51;;;;;;;26.13;15.18;;;2.90;99.90;;;;;;5071292;28;20029;-68
2021/10/25 06:19:55;;;;;;;30.08;16.27;;;2.90;99.90;;;;;;5054528;28;20041;-67
2021/10/25 06:22:21;;;;;;;21.25;14.40;;;2.80;99.90;;;;;;5042055;28;20021;-67
2021/10/25 06:24:47;;;;;;;24.90;15.13;;;2.80;99.90;;;;;;5055059;28;20445;-68
2021/10/25 06:27:13;;;;;;;22.65;14.15;;;2.80;99.90;;;;;;5058358;28;20024;-67
2021/10/25 06:29:39;;;;;;;26.83;13.65;;;2.80;99.90;;;;;;5052535;28;20398;-67
2021/10/25 06:32:05;;;;;;;29.25;15.40;;;2.80;99.90;;;;;;5072994;28;20086;-67
2021/10/25 06:34:40;;;;;;;29.88;16.50;;;2.80;99.90;;;;;;5071084;28;20025;-68
2021/10/25 06:37:07;;;;;;;25.08;15.10;;;2.80;99.90;;;;;;5060037;28;20025;-68
2021/10/25 06:39:38;;;;;;;28.17;16.55;;;2.90;99.90;;;;;;5074608;28;20021;-67
2021/10/25 06:42:05;;;;;;;30.05;16.65;;;3.00;99.90;;;;;;5058665;28;20025;-68
2021/10/25 06:44:33;;;;;;;35.67;20.33;;;3.20;99.90;;;;;;5065157;28;20017;-68
2021/10/25 06:46:59;;;;;;;36.53;21.27;;;3.50;99.90;;;;;;5073256;28;20017;-68
2021/10/25 06:49:28;;;;;;;31.80;20.77;;;4.90;99.90;;;;;;5070914;28;20513;-68
2021/10/25 06:51:54;;;;;;;27.58;18.05;;;5.30;99.90;;;;;;5068185;28;20028;-69
2021/10/25 06:54:19;;;;;;;25.63;15.38;;;5.60;99.90;;;;;;5066421;28;20082;-68
2021/10/25 06:56:45;;;;;;;20.80;13.38;;;6.00;99.90;;;;;;5069387;28;20064;-68
2021/10/25 06:59:10;;;;;;;19.08;11.75;;;6.00;99.90;;;;;;5067460;28;20549;-68
2021/10/25 07:01:36;;;;;;;18.33;10.15;;;5.80;99.90;;;;;;5071465;28;20027;-68
2021/10/25 07:04:01;;;;;;;15.70;10.25;;;5.60;99.90;;;;;;5073860;28;20052;-68
2021/10/25 07:06:30;;;;;;;15.48;10.70;;;5.70;99.90;;;;;;5057519;28;20025;-71
2021/10/25 07:08:56;;;;;;;15.00;10.23;;;;;;;;;;5069478;28;20128;-72
2021/10/25 07:11:22;;;;;;;17.33;10.07;;;7.10;99.90;;;;;;5064761;28;20163;-72
2021/10/25 07:13:50;;;;;;;16.85;9.73;;;7.60;99.90;;;;;;5073182;28;20104;-72
2021/10/25 07:16:27;;;;;;;11.57;8.50;;;8.60;99.90;;;;;;5071101;28;20419;-72
2021/10/25 07:19:07;;;;;;;13.95;8.10;;;10.00;99.90;;;;;;5053526;28;20021;-72
2021/10/25 07:21:47;;;;;;;14.57;8.25;;;10.80;99.90;;;;;;5072214;28;20393;-70
2021/10/25 08:00:24;;;;;;;10.65;6.95;;;13.30;99.90;;;;;;5089760;28;20035;-72
2021/10/25 08:05:50;;;;;;;11.07;7.03;;;13.80;99.90;;;;;;5093698;28;20025;-70
2021/10/25 08:11:04;;;;;;;10.43;6.90;;;14.70;99.90;;;;;;5080084;28;20734;-70
2021/10/25 08:13:38;;;;;;;10.75;7.05;;;15.20;99.90;;;;;;5089418;28;20027;-71
2021/10/25 08:16:31;;;;;;;9.68;6.80;;;15.10;99.90;;;;;;5080014;28;20051;-70
2021/10/25 08:21:28;;;;;;;10.50;6.60;;;14.90;99.90;;;;;;5070472;28;20366;-69
2021/10/25 08:23:54;;;;;;;11.98;7.90;;;15.60;99.90;;;;;;5068244;28;20021;-70
2021/10/25 08:26:19;;;;;;;11.20;7.60;;;15.60;99.90;;;;;;5061830;28;20108;-70
2021/10/25 08:28:45;;;;;;;15.43;7.35;;;14.70;99.90;;;;;;5058319;28;20029;-71
2021/10/25 08:31:13;;;;;;;10.55;7.35;;;13.90;99.90;;;;;;5054811;28;20048;-71
2021/10/25 08:41:48;;;;;;;13.20;8.35;;;12.90;99.90;;;;;;5041511;28;20057;-71
2021/10/25 08:44:15;;;;;;;13.15;7.72;;;12.90;99.90;;;;;;5046958;28;20079;-71
2021/10/25 08:46:49;;;;;;;11.07;7.28;;;13.60;99.90;;;;;;5048013;28;20025;-71
2021/10/25 08:49:15;;;;;;;9.88;7.32;;;14.60;99.90;;;;;;5053068;28;20032;-72
2021/10/25 08:51:41;;;;;;;10.73;7.05;;;14.90;99.90;;;;;;5048835;28;20028;-72
2021/10/25 08:54:07;;;;;;;12.25;6.90;;;15.40;99.90;;;;;;5048374;28;20037;-71
2021/10/25 08:56:32;;;;;;;13.43;6.55;;;15.70;99.90;;;;;;5048853;28;20025;-71
2021/10/25 08:59:00;;;;;;;11.88;5.93;;;15.50;99.90;;;;;;5050501;28;20404;-71
2021/10/25 09:01:28;;;;;;;9.27;5.90;;;15.70;99.90;;;;;;5048610;28;20029;-70
2021/10/25 09:04:11;;;;;;;9.52;5.53;;;15.60;99.90;;;;;;5048476;28;20083;-74
2021/10/25 09:09:28;;;;;;;11.52;5.90;;;15.90;99.90;;;;;;5104819;27;20780;-69
2021/10/25 09:12:04;;;;;;;7.95;4.88;;;15.70;99.90;;;;;;5098376;28;20020;-69
2021/10/25 09:14:31;;;;;;;6.50;4.43;;;16.40;99.90;;;;;;5077333;28;20020;-72
2021/10/25 09:17:00;;;;;;;8.00;4.25;;;16.40;99.90;;;;;;5088767;28;20012;-75
2021/10/25 09:19:29;;;;;;;8.35;4.55;;;16.50;99.90;;;;;;5089951;28;20081;-72
2021/10/25 09:22:05;;;;;;;6.63;4.32;;;16.40;99.90;;;;;;5094201;28;20115;-72
2021/10/25 09:24:31;;;;;;;10.05;4.03;;;17.00;99.90;;;;;;5082200;28;20044;-71
2021/10/25 09:27:00;;;;;;;7.28;4.50;;;16.70;99.90;;;;;;5089977;28;20059;-70
2021/10/25 09:29:28;;;;;;;8.18;4.00;;;16.50;99.90;;;;;;5105198;28;20059;-70
2021/10/25 09:31:56;;;;;;;7.05;4.63;;;16.40;99.90;;;;;;5089539;28;20063;-71
2021/10/25 09:34:34;;;;;;;5.97;4.07;;;16.10;99.90;;;;;;5087109;28;20357;-72
2021/10/25 09:37:10;;;;;;;7.65;4.53;;;16.30;99.90;;;;;;5091810;28;21308;-72
2021/10/25 09:39:47;;;;;;;8.85;4.72;;;15.90;99.90;;;;;;5095418;28;20466;-72
2021/10/25 09:42:25;;;;;;;7.53;4.00;;;16.10;99.90;;;;;;5089368;28;20385;-72
2021/10/25 09:45:51;;;;;;;4.82;3.53;;;16.60;99.90;;;;;;5098245;28;20483;-70
2021/10/25 09:51:01;;;;;;;8.70;3.65;;;16.40;99.90;;;;;;5069737;28;20047;-73
2021/10/25 09:53:31;;;;;;;5.35;3.70;;;16.10;99.90;;;;;;5095737;28;20094;-73
2021/10/25 09:55:57;;;;;;;7.90;3.47;;;16.10;99.90;;;;;;5087241;28;20020;-71
2021/10/25 09:58:26;;;;;;;6.07;3.42;;;15.80;99.90;;;;;;5088840;28;20043;-71
2021/10/25 10:00:53;;;;;;;9.55;3.40;;;15.40;99.90;;;;;;5089230;28;20403;-71
2021/10/25 10:03:19;;;;;;;7.13;3.55;;;15.60;99.90;;;;;;5085875;28;20429;-70
2021/10/25 10:05:44;;;;;;;5.13;3.80;;;15.80;99.90;;;;;;5089365;28;20055;-70
2021/10/25 10:08:11;;;;;;;7.95;3.90;;;16.00;99.90;;;;;;5088327;28;20047;-69
2021/10/25 10:10:38;;;;;;;6.45;3.72;;;15.80;99.90;;;;;;5089096;28;20046;-72
2021/10/25 10:13:05;;;;;;;5.82;3.60;;;15.60;99.90;;;;;;5088818;28;20099;-69
2021/10/25 10:15:34;;;;;;;6.22;3.60;;;16.00;99.90;;;;;;5089040;28;20491;-70
2021/10/25 10:18:10;;;;;;;5.82;3.50;;;15.90;99.90;;;;;;5087379;28;20027;-68
2021/10/25 10:20:39;;;;;;;6.25;3.85;;;16.10;99.90;;;;;;5075338;28;20028;-68
2021/10/25 10:23:09;;;;;;;7.25;3.72;;;16.30;99.90;;;;;;5072028;28;20102;-68
2021/10/25 10:25:47;;;;;;;6.90;3.95;;;16.30;99.90;;;;;;5075564;28;20111;-68
2021/10/25 10:28:15;;;;;;;7.10;3.47;;;16.10;99.90;;;;;;5074046;28;20028;-69
2021/10/25 10:30:57;;;;;;;6.97;3.95;;;16.30;99.90;;;;;;5075732;28;20051;-69
2021/10/25 10:33:40;;;;;;;4.82;3.35;;;15.80;99.90;;;;;;5074458;28;20103;-69
2021/10/25 10:36:11;;;;;;;8.45;4.25;;;15.90;99.90;;;;;;5074020;28;20119;-69
2021/10/25 10:38:59;;;;;;;7.60;3.92;;;15.70;99.90;;;;;;5071069;28;20024;-69
2021/10/25 10:41:53;;;;;;;58.42;11.13;;;16.00;99.90;;;;;;5073394;28;20462;-69
2021/10/25 10:44:21;;;;;;;;;;;16.20;99.90;;;;;;5074562;28;20028;-70
2021/10/25 10:46:54;;;;;;;5.10;3.35;;;16.10;99.90;;;;;;5071417;28;20003;-70
2021/10/25 10:49:34;;;;;;;14.07;4.38;;;16.30;99.90;;;;;;5072022;28;20028;-70
2021/10/25 10:54:58;;;;;;;16.42;4.45;;;16.90;99.90;;;;;;5110786;27;20396;-70
2021/10/25 11:00:30;;;;;;;38.63;7.97;;;16.60;99.90;;;;;;5107780;28;20449;-69
2021/10/25 11:02:57;;;;;;;7.50;3.38;;;16.80;99.90;;;;;;5110074;28;20020;-70
2021/10/25 11:05:44;;;;;;;8.15;4.10;;;16.80;99.90;;;;;;5109309;28;20492;-68
2021/10/25 11:08:15;;;;;;;11.77;3.35;;;16.70;99.90;;;;;;5109966;28;20073;-66
2021/10/25 11:10:42;;;;;;;7.78;3.53;;;16.70;99.90;;;;;;5106664;28;20026;-68
2021/10/25 11:13:20;;;;;;;8.98;4.15;;;16.70;99.90;;;;;;5103756;28;20069;-68
2021/10/25 11:15:57;;;;;;;11.05;4.15;;;16.50;99.90;;;;;;5107644;28;20374;-68
2021/10/25 11:18:26;;;;;;;8.73;3.72;;;16.30;99.90;;;;;;5105494;28;20016;-68
2021/10/25 11:21:04;;;;;;;8.05;3.42;;;15.90;99.90;;;;;;5103542;28;20107;-68
2021/10/25 11:23:36;;;;;;;6.50;3.00;;;15.80;99.90;;;;;;5109278;28;20027;-68
2021/10/25 11:26:12;;;;;;;9.98;3.50;;;16.00;99.90;;;;;;5108431;28;20020;-67
2021/10/25 11:28:38;;;;;;;9.40;3.55;;;15.80;99.90;;;;;;5106750;28;20028;-68
2021/10/25 11:31:04;;;;;;;7.25;3.40;;;16.20;99.90;;;;;;5109416;28;20085;-67
2021/10/25 11:33:31;;;;;;;4.68;3.53;;;16.20;99.90;;;;;;5111803;28;20027;-67
2021/10/25 11:35:59;;;;;;;7.18;3.53;;;16.00;99.90;;;;;;5095444;28;20439;-67
2021/10/25 11:38:26;;;;;;;8.35;3.92;;;15.90;99.90;;;;;;5090687;28;20390;-67
2021/10/25 11:40:52;;;;;;;9.02;3.70;;;15.80;99.90;;;;;;5087833;28;20450;-67
2021/10/25 11:43:27;;;;;;;4.40;3.28;;;15.70;99.90;;;;;;5097278;28;20032;-67
2021/10/25 11:45:52;;;;;;;9.43;3.45;;;15.80;99.90;;;;;;5105084;28;20032;-68
2021/10/25 11:48:27;;;;;;;7.35;3.45;;;15.90;99.90;;;;;;5105306;28;20036;-67
2021/10/25 11:50:59;;;;;;;7.38;3.45;;;15.90;99.90;;;;;;5114090;28;20498;-67
2021/10/25 11:53:28;;;;;;;6.50;3.20;;;15.90;99.90;;;;;;5102740;28;20036;-66
2021/10/25 11:55:54;;;;;;;7.28;3.22;;;15.80;99.90;;;;;;5104829;28;20016;-66
2021/10/25 11:58:22;;;;;;;6.03;3.55;;;15.60;99.90;;;;;;5109394;28;20024;-67
2021/10/25 12:00:51;;;;;;;9.35;3.95;;;15.70;99.90;;;;;;5105588;28;20020;-66
2021/10/25 12:03:22;;;;;;;6.85;3.85;;;15.50;99.90;;;;;;5109980;28;20081;-66
2021/10/25 12:05:48;;;;;;;7.15;3.38;;;15.50;99.90;;;;;;5102236;28;20024;-67
2021/10/25 12:08:16;;;;;;;6.68;3.10;;;15.30;99.90;;;;;;5077835;28;20028;-68
2021/10/25 12:10:44;;;;;;;8.20;3.15;;;15.30;99.90;;;;;;5075791;28;20385;-67
2021/10/25 12:13:10;;;;;;;5.80;2.97;;;15.20;99.90;;;;;;5086089;28;20438;-67
2021/10/25 12:15:42;;;;;;;6.70;3.67;;;15.20;99.90;;;;;;5075732;28;20116;-67
2021/10/25 12:18:13;;;;;;;6.47;3.38;;;15.10;99.90;;;;;;5082445;28;20067;-67
2021/10/25 12:20:40;;;;;;;7.82;3.92;;;15.10;99.90;;;;;;5107063;28;20417;-67
2021/10/25 12:23:11;;;;;;;7.22;3.92;;;15.30;99.90;;;;;;5093365;28;20036;-67
2021/10/25 12:25:38;;;;;;;7.88;3.22;;;15.40;99.90;;;;;;5089841;28;20031;-67
2021/10/25 12:28:20;;;;;;;7.70;3.20;;;15.40;99.90;;;;;;5091866;28;20033;-67
2021/10/25 12:30:50;;;;;;;5.50;2.88;;;15.20;99.90;;;;;;5094319;28;20039;-68
2021/10/25 12:33:20;;;;;;;9.20;3.25;;;15.20;99.90;;;;;;5097374;28;20028;-67
2021/10/25 12:35:48;;;;;;;7.20;3.15;;;15.10;99.90;;;;;;5082658;28;20023;-66
2021/10/25 12:38:16;;;;;;;7.60;3.42;;;15.10;99.90;;;;;;5083203;28;20024;-66
2021/10/25 12:41:00;;;;;;;8.07;2.83;;;15.10;99.90;;;;;;5094929;28;20334;-65
2021/10/25 12:43:25;;;;;;;6.35;3.00;;;15.20;99.90;;;;;;5087448;28;20025;-66
2021/10/25 12:46:10;;;;;;;5.70;3.05;;;15.20;99.90;;;;;;5090123;28;20035;-68
2021/10/25 12:48:56;;;;;;;7.15;3.13;;;15.20;99.90;;;;;;5093563;28;20020;-68
2021/10/25 12:51:33;;;;;;;5.97;3.28;;;15.30;99.90;;;;;;5064202;28;20481;-67
2021/10/25 12:54:07;;;;;;;6.85;3.20;;;15.40;99.90;;;;;;5081681;28;20156;-67
2021/10/25 12:56:33;;;;;;;10.75;3.60;;;15.70;99.90;;;;;;5089980;28;20012;-68
2021/10/25 12:59:02;;;;;;;6.88;3.10;;;15.70;99.90;;;;;;5094445;28;20481;-67
2021/10/25 13:01:29;;;;;;;6.53;3.17;;;15.80;99.90;;;;;;5091545;28;20020;-67
2021/10/25 13:03:57;;;;;;;6.57;3.03;;;15.80;99.90;;;;;;5092733;28;20032;-67
2021/10/25 13:06:28;;;;;;;9.73;2.97;;;15.60;99.90;;;;;;5085424;28;20024;-68
2021/10/25 13:09:11;;;;;;;7.43;3.05;;;15.40;99.90;;;;;;5062106;28;20059;-68
2021/10/25 13:11:37;;;;;;;7.20;3.13;;;15.40;99.90;;;;;;5086347;28;20036;-67
2021/10/25 13:14:05;;;;;;;11.80;3.20;;;15.50;99.90;;;;;;5072548;28;20029;-67
2021/10/25 13:16:42;;;;;;;8.65;3.50;;;15.50;99.90;;;;;;5091784;28;20017;-67
2021/10/25 13:19:08;;;;;;;7.05;3.10;;;15.60;99.90;;;;;;5092236;28;20036;-67
2021/10/25 13:21:33;;;;;;;5.13;2.55;;;15.70;99.90;;;;;;5089445;28;20119;-67
2021/10/25 13:23:59;;;;;;;7.18;3.08;;;15.60;99.90;;;;;;5094078;28;20032;-68
2021/10/25 13:26:26;;;;;;;6.28;3.30;;;15.60;99.90;;;;;;5078153;28;20081;-68
2021/10/25 13:28:52;;;;;;;6.20;3.20;;;15.70;99.90;;;;;;5091124;28;20386;-67
2021/10/25 13:31:17;;;;;;;4.47;3.05;;;15.70;99.90;;;;;;5091238;28;20050;-67
2021/10/25 13:33:43;;;;;;;7.53;3.15;;;15.80;99.90;;;;;;5087087;28;20028;-67
2021/10/25 13:36:09;;;;;;;7.57;3.22;;;15.80;99.90;;;;;;5071752;28;20166;-66
2021/10/25 13:38:35;;;;;;;7.70;3.25;;;15.80;99.90;;;;;;5078737;28;20103;-67
2021/10/25 13:41:02;;;;;;;5.72;2.97;;;15.70;99.90;;;;;;5085384;28;20043;-67
2021/10/25 13:43:28;;;;;;;8.80;3.03;;;15.80;99.90;;;;;;5093432;28;20405;-67
2021/10/25 13:45:54;;;;;;;8.38;3.15;;;16.00;99.90;;;;;;5083491;28;20032;-67
2021/10/25 13:48:19;;;;;;;7.22;3.42;;;16.00;99.90;;;;;;5090814;28;20027;-67
2021/10/25 13:50:45;;;;;;;9.30;3.50;;;16.00;99.90;;;;;;5087064;28;20432;-67
2021/10/25 13:53:11;;;;;;;7.70;3.50;;;15.90;99.90;;;;;;5087034;28;20548;-67
2021/10/25 13:55:37;;;;;;;10.93;3.55;;;15.80;99.90;;;;;;5081285;28;20035;-67
2021/10/25 13:58:03;;;;;;;7.88;3.38;;;15.70;99.90;;;;;;5083413;28;20108;-66
2021/10/25 14:00:29;;;;;;;6.38;4.38;;;15.60;99.90;;;;;;5090042;28;20103;-67
2021/10/25 14:02:56;;;;;;;7.50;4.60;;;15.60;99.90;;;;;;5091333;28;20461;-67
2021/10/25 14:05:22;;;;;;;13.05;4.53;;;15.60;99.90;;;;;;5086067;28;20025;-66
2021/10/25 14:07:48;;;;;;;12.93;4.43;;;15.60;99.90;;;;;;5086824;28;20024;-67
2021/10/25 14:10:23;;;;;;;6.55;2.80;;;15.60;99.90;;;;;;5092562;28;20028;-66
2021/10/25 14:12:50;;;;;;;8.88;3.85;;;15.50;99.90;;;;;;5073990;28;20035;-66
2021/10/25 14:15:24;;;;;;;5.80;3.15;;;15.50;99.90;;;;;;5090985;28;20103;-67